sensor_id;sensor_type;location;lat;lon;timestamp;temperature;humidity
34008;DHT22;41085;51.594;7.138;2023-02-03T00:00:57;18.00;97.50
34008;DHT22;41085;51.594;7.138;2023-02-03T00:04:57;16.30;96.40
34008;DHT22;41085;51.594;7.138;2023-02-03T00:09:18;16.60;96.50
34008;DHT22;41085;51.594;7.138;2023-02-03T00:13:19;16.30;94.50
34008;DHT22;41085;51.594;7.138;2023-02-03T00:17:19;15.50;96.80
34008;DHT22;41085;51.594;7.138;2023-02-03T00:21:20;17.90;97.50
34008;DHT22;41085;51.594;7.138;2023-02-03T00:25:20;17.70;97.60
34008;DHT22;41085;51.594;7.138;2023-02-03T00:29:21;17.70;97.00
34008;DHT22;41085;51.594;7.138;2023-02-03T00:33:25;16.30;96.30
34008;DHT22;41085;51.594;7.138;2023-02-03T00:37:25;16.40;96.50
34008;DHT22;41085;51.594;7.138;2023-02-03T00:41:28;16.70;96.70
34008;DHT22;41085;51.594;7.138;2023-02-03T00:45:29;15.70;96.00
34008;DHT22;41085;51.594;7.138;2023-02-03T00:49:30;16.60;96.30
34008;DHT22;41085;51.594;7.138;2023-02-03T00:53:31;17.20;96.20
34008;DHT22;41085;51.594;7.138;2023-02-03T00:57:31;17.40;96.40
34008;DHT22;41085;51.594;7.138;2023-02-03T01:01:33;16.20;96.10
34008;DHT22;41085;51.594;7.138;2023-02-03T01:05:34;15.90;96.10
34008;DHT22;41085;51.594;7.138;2023-02-03T01:09:35;17.30;96.70
34008;DHT22;41085;51.594;7.138;2023-02-03T01:13:36;15.40;96.20
34008;DHT22;41085;51.594;7.138;2023-02-03T01:17:37;17.40;96.90
34008;DHT22;41085;51.594;7.138;2023-02-03T01:21:37;16.90;96.80
34008;DHT22;41085;51.594;7.138;2023-02-03T01:25:40;16.70;96.80
34008;DHT22;41085;51.594;7.138;2023-02-03T01:29:41;15.50;96.80
34008;DHT22;41085;51.594;7.138;2023-02-03T01:33:42;19.90;99.40
34008;DHT22;41085;51.594;7.138;2023-02-03T01:37:45;16.70;97.50
34008;DHT22;41085;51.594;7.138;2023-02-03T01:41:46;17.50;97.60
34008;DHT22;41085;51.594;7.138;2023-02-03T01:45:46;17.60;97.30
34008;DHT22;41085;51.594;7.138;2023-02-03T01:50:04;17.50;97.00
34008;DHT22;41085;51.594;7.138;2023-02-03T01:54:10;16.10;95.20
34008;DHT22;41085;51.594;7.138;2023-02-03T01:58:17;13.10;96.20
34008;DHT22;41085;51.594;7.138;2023-02-03T02:02:20;16.70;96.70
34008;DHT22;41085;51.594;7.138;2023-02-03T02:06:21;15.80;96.60
34008;DHT22;41085;51.594;7.138;2023-02-03T02:10:21;16.90;97.20
34008;DHT22;41085;51.594;7.138;2023-02-03T02:14:22;16.70;97.00
34008;DHT22;41085;51.594;7.138;2023-02-03T02:18:38;17.00;96.80
34008;DHT22;41085;51.594;7.138;2023-02-03T02:27:09;15.70;94.90
34008;DHT22;41085;51.594;7.138;2023-02-03T02:40:03;16.00;96.50
34008;DHT22;41085;51.594;7.138;2023-02-03T02:48:34;15.90;95.00
34008;DHT22;41085;51.594;7.138;2023-02-03T02:52:40;16.40;96.70
34008;DHT22;41085;51.594;7.138;2023-02-03T02:56:42;16.40;96.60
34008;DHT22;41085;51.594;7.138;2023-02-03T03:00:44;16.60;96.60
34008;DHT22;41085;51.594;7.138;2023-02-03T03:04:47;16.90;96.80
34008;DHT22;41085;51.594;7.138;2023-02-03T03:08:54;16.90;96.70
34008;DHT22;41085;51.594;7.138;2023-02-03T03:13:00;16.70;96.60
34008;DHT22;41085;51.594;7.138;2023-02-03T03:17:08;17.00;96.70
34008;DHT22;41085;51.594;7.138;2023-02-03T03:21:15;17.40;97.60
34008;DHT22;41085;51.594;7.138;2023-02-03T03:25:20;18.40;97.10
34008;DHT22;41085;51.594;7.138;2023-02-03T03:29:25;16.80;96.80
34008;DHT22;41085;51.594;7.138;2023-02-03T03:33:29;18.10;97.00
34008;DHT22;41085;51.594;7.138;2023-02-03T03:37:34;17.80;97.10
34008;DHT22;41085;51.594;7.138;2023-02-03T03:46:05;16.20;95.10
34008;DHT22;41085;51.594;7.138;2023-02-03T03:50:11;16.00;96.40
34008;DHT22;41085;51.594;7.138;2023-02-03T03:54:19;15.80;96.50
34008;DHT22;41085;51.594;7.138;2023-02-03T03:58:30;17.30;96.90
34008;DHT22;41085;51.594;7.138;2023-02-03T04:02:32;15.60;95.20
34008;DHT22;41085;51.594;7.138;2023-02-03T04:06:33;16.70;96.70
34008;DHT22;41085;51.594;7.138;2023-02-03T04:10:36;16.40;96.80
34008;DHT22;41085;51.594;7.138;2023-02-03T04:14:37;16.80;96.80
34008;DHT22;41085;51.594;7.138;2023-02-03T04:18:38;17.00;96.90
34008;DHT22;41085;51.594;7.138;2023-02-03T04:22:38;16.60;96.90
34008;DHT22;41085;51.594;7.138;2023-02-03T04:26:39;16.60;96.90
34008;DHT22;41085;51.594;7.138;2023-02-03T04:30:40;15.90;96.60
34008;DHT22;41085;51.594;7.138;2023-02-03T04:34:40;17.10;97.00
34008;DHT22;41085;51.594;7.138;2023-02-03T04:38:41;17.70;97.60
34008;DHT22;41085;51.594;7.138;2023-02-03T04:42:41;16.00;96.70
34008;DHT22;41085;51.594;7.138;2023-02-03T04:46:42;17.20;97.30
34008;DHT22;41085;51.594;7.138;2023-02-03T04:50:43;17.00;97.00
34008;DHT22;41085;51.594;7.138;2023-02-03T04:54:43;16.90;97.10
34008;DHT22;41085;51.594;7.138;2023-02-03T04:58:44;16.70;97.00
34008;DHT22;41085;51.594;7.138;2023-02-03T05:02:44;16.20;96.90
34008;DHT22;41085;51.594;7.138;2023-02-03T05:06:45;16.80;97.10
34008;DHT22;41085;51.594;7.138;2023-02-03T05:10:45;17.20;97.40
34008;DHT22;41085;51.594;7.138;2023-02-03T05:14:46;17.70;97.90
34008;DHT22;41085;51.594;7.138;2023-02-03T05:18:47;16.70;96.30
34008;DHT22;41085;51.594;7.138;2023-02-03T05:22:47;17.50;97.30
34008;DHT22;41085;51.594;7.138;2023-02-03T05:26:48;16.90;97.10
34008;DHT22;41085;51.594;7.138;2023-02-03T05:30:49;16.30;97.30
34008;DHT22;41085;51.594;7.138;2023-02-03T05:34:49;16.00;96.70
34008;DHT22;41085;51.594;7.138;2023-02-03T05:38:50;17.10;97.00
34008;DHT22;41085;51.594;7.138;2023-02-03T05:42:50;17.90;97.20
34008;DHT22;41085;51.594;7.138;2023-02-03T05:46:52;16.90;96.90
34008;DHT22;41085;51.594;7.138;2023-02-03T05:50:53;17.80;97.20
34008;DHT22;41085;51.594;7.138;2023-02-03T05:54:54;17.50;97.20
34008;DHT22;41085;51.594;7.138;2023-02-03T05:58:55;17.30;96.20
34008;DHT22;41085;51.594;7.138;2023-02-03T06:02:58;16.70;96.90
34008;DHT22;41085;51.594;7.138;2023-02-03T06:06:59;17.90;97.20
34008;DHT22;41085;51.594;7.138;2023-02-03T06:10:59;18.80;97.70
34008;DHT22;41085;51.594;7.138;2023-02-03T06:15:00;18.20;97.40
34008;DHT22;41085;51.594;7.138;2023-02-03T06:19:00;17.90;97.30
34008;DHT22;41085;51.594;7.138;2023-02-03T06:23:01;17.60;97.30
34008;DHT22;41085;51.594;7.138;2023-02-03T06:27:02;16.40;97.70
34008;DHT22;41085;51.594;7.138;2023-02-03T06:31:03;16.50;97.10
34008;DHT22;41085;51.594;7.138;2023-02-03T06:35:04;15.80;96.90
34008;DHT22;41085;51.594;7.138;2023-02-03T06:39:05;15.80;97.00
34008;DHT22;41085;51.594;7.138;2023-02-03T06:43:05;17.10;97.40
34008;DHT22;41085;51.594;7.138;2023-02-03T06:47:06;16.50;97.20
34008;DHT22;41085;51.594;7.138;2023-02-03T06:51:06;15.90;97.10
34008;DHT22;41085;51.594;7.138;2023-02-03T06:55:07;17.40;97.90
34008;DHT22;41085;51.594;7.138;2023-02-03T06:59:08;15.60;97.70
34008;DHT22;41085;51.594;7.138;2023-02-03T07:03:09;16.80;97.90
34008;DHT22;41085;51.594;7.138;2023-02-03T07:07:10;17.50;97.60
34008;DHT22;41085;51.594;7.138;2023-02-03T07:11:11;17.60;97.50
34008;DHT22;41085;51.594;7.138;2023-02-03T07:15:12;17.20;97.40
34008;DHT22;41085;51.594;7.138;2023-02-03T07:19:13;17.20;97.30
34008;DHT22;41085;51.594;7.138;2023-02-03T07:23:13;17.40;97.40
34008;DHT22;41085;51.594;7.138;2023-02-03T07:27:14;15.70;96.90
34008;DHT22;41085;51.594;7.138;2023-02-03T07:31:14;17.80;97.50
34008;DHT22;41085;51.594;7.138;2023-02-03T07:35:15;16.20;97.00
34008;DHT22;41085;51.594;7.138;2023-02-03T07:39:16;16.20;97.00
34008;DHT22;41085;51.594;7.138;2023-02-03T07:43:17;17.10;97.10
34008;DHT22;41085;51.594;7.138;2023-02-03T07:47:18;17.40;97.30
34008;DHT22;41085;51.594;7.138;2023-02-03T07:51:18;18.00;97.40
34008;DHT22;41085;51.594;7.138;2023-02-03T07:55:19;17.80;97.30
34008;DHT22;41085;51.594;7.138;2023-02-03T07:59:20;16.60;97.00
34008;DHT22;41085;51.594;7.138;2023-02-03T08:03:20;17.10;97.30
34008;DHT22;41085;51.594;7.138;2023-02-03T08:07:21;16.70;97.10
34008;DHT22;41085;51.594;7.138;2023-02-03T08:11:21;16.10;96.90
34008;DHT22;41085;51.594;7.138;2023-02-03T08:15:22;17.50;97.20
34008;DHT22;41085;51.594;7.138;2023-02-03T08:19:23;16.80;97.00
34008;DHT22;41085;51.594;7.138;2023-02-03T08:23:23;17.10;97.00
34008;DHT22;41085;51.594;7.138;2023-02-03T08:27:24;16.50;96.90
34008;DHT22;41085;51.594;7.138;2023-02-03T08:31:24;15.70;96.70
34008;DHT22;41085;51.594;7.138;2023-02-03T08:35:25;17.60;97.10
34008;DHT22;41085;51.594;7.138;2023-02-03T08:39:26;17.00;96.90
34008;DHT22;41085;51.594;7.138;2023-02-03T08:43:26;16.40;96.70
34008;DHT22;41085;51.594;7.138;2023-02-03T08:47:27;17.20;97.00
34008;DHT22;41085;51.594;7.138;2023-02-03T08:51:28;17.10;96.90
34008;DHT22;41085;51.594;7.138;2023-02-03T08:55:29;15.80;96.50
34008;DHT22;41085;51.594;7.138;2023-02-03T08:59:30;16.50;96.70
34008;DHT22;41085;51.594;7.138;2023-02-03T09:03:30;17.90;97.00
34008;DHT22;41085;51.594;7.138;2023-02-03T09:07:31;15.80;96.50
34008;DHT22;41085;51.594;7.138;2023-02-03T09:11:31;17.40;97.00
34008;DHT22;41085;51.594;7.138;2023-02-03T09:15:32;17.10;96.90
34008;DHT22;41085;51.594;7.138;2023-02-03T09:19:33;16.80;96.70
34008;DHT22;41085;51.594;7.138;2023-02-03T09:23:34;17.30;96.90
34008;DHT22;41085;51.594;7.138;2023-02-03T09:27:34;17.30;96.80
34008;DHT22;41085;51.594;7.138;2023-02-03T09:31:35;17.40;97.10
34008;DHT22;41085;51.594;7.138;2023-02-03T09:35:35;17.70;96.90
34008;DHT22;41085;51.594;7.138;2023-02-03T09:39:36;16.80;97.00
34008;DHT22;41085;51.594;7.138;2023-02-03T09:48:16;16.00;96.00
34008;DHT22;41085;51.594;7.138;2023-02-03T09:52:20;16.60;97.90
34008;DHT22;41085;51.594;7.138;2023-02-03T09:56:31;17.00;97.40
34008;DHT22;41085;51.594;7.138;2023-02-03T10:00:42;15.90;95.70
34008;DHT22;41085;51.594;7.138;2023-02-03T10:05:02;16.30;96.20
34008;DHT22;41085;51.594;7.138;2023-02-03T10:09:35;15.50;96.10
34008;DHT22;41085;51.594;7.138;2023-02-03T10:14:15;15.80;96.20
34008;DHT22;41085;51.594;7.138;2023-02-03T10:18:23;16.10;96.50
34008;DHT22;41085;51.594;7.138;2023-02-03T10:22:28;16.90;98.20
34008;DHT22;41085;51.594;7.138;2023-02-03T10:26:30;16.90;98.20
34008;DHT22;41085;51.594;7.138;2023-02-03T10:30:34;17.30;98.60
34008;DHT22;41085;51.594;7.138;2023-02-03T10:34:46;16.30;96.30
34008;DHT22;41085;51.594;7.138;2023-02-03T10:42:48;16.30;97.80
34008;DHT22;41085;51.594;7.138;2023-02-03T10:47:23;17.70;98.40
34008;DHT22;41085;51.594;7.138;2023-02-03T10:51:29;16.90;98.30
34008;DHT22;41085;51.594;7.138;2023-02-03T10:55:32;16.80;98.00
34008;DHT22;41085;51.594;7.138;2023-02-03T10:59:35;15.90;97.90
34008;DHT22;41085;51.594;7.138;2023-02-03T11:03:37;16.20;96.50
34008;DHT22;41085;51.594;7.138;2023-02-03T11:07:40;16.90;95.70
34008;DHT22;41085;51.594;7.138;2023-02-03T11:11:40;16.80;96.20
34008;DHT22;41085;51.594;7.138;2023-02-03T11:16:05;16.00;97.50
34008;DHT22;41085;51.594;7.138;2023-02-03T11:20:16;15.80;97.60
34008;DHT22;41085;51.594;7.138;2023-02-03T11:28:25;16.30;97.70
34008;DHT22;41085;51.594;7.138;2023-02-03T11:32:32;16.00;97.60
34008;DHT22;41085;51.594;7.138;2023-02-03T11:36:44;16.20;97.90
34008;DHT22;41085;51.594;7.138;2023-02-03T11:40:58;16.60;99.80
34008;DHT22;41085;51.594;7.138;2023-02-03T11:45:28;18.20;98.10
34008;DHT22;41085;51.594;7.138;2023-02-03T11:49:45;16.20;96.30
34008;DHT22;41085;51.594;7.138;2023-02-03T11:54:01;15.70;96.00
34008;DHT22;41085;51.594;7.138;2023-02-03T12:11:32;15.90;95.90
34008;DHT22;41085;51.594;7.138;2023-02-03T12:33:03;16.20;95.80
34008;DHT22;41085;51.594;7.138;2023-02-03T12:37:18;16.30;97.20
34008;DHT22;41085;51.594;7.138;2023-02-03T12:41:25;16.80;97.30
34008;DHT22;41085;51.594;7.138;2023-02-03T18:47:13;16.00;96.30
34008;DHT22;41085;51.594;7.138;2023-02-03T18:51:19;15.30;97.70
34008;DHT22;41085;51.594;7.138;2023-02-03T18:55:21;16.60;98.00
34008;DHT22;41085;51.594;7.138;2023-02-03T18:59:21;15.90;98.60
34008;DHT22;41085;51.594;7.138;2023-02-03T19:03:22;16.70;98.70
34008;DHT22;41085;51.594;7.138;2023-02-03T19:07:25;15.70;98.30
34008;DHT22;41085;51.594;7.138;2023-02-03T19:11:25;15.60;98.50
34008;DHT22;41085;51.594;7.138;2023-02-03T19:15:26;16.00;98.50
34008;DHT22;41085;51.594;7.138;2023-02-03T19:19:27;17.90;99.10
34008;DHT22;41085;51.594;7.138;2023-02-03T19:23:27;15.70;98.50
34008;DHT22;41085;51.594;7.138;2023-02-03T19:27:28;16.60;98.70
34008;DHT22;41085;51.594;7.138;2023-02-03T19:31:28;15.40;98.80
34008;DHT22;41085;51.594;7.138;2023-02-03T19:35:29;16.00;98.50
34008;DHT22;41085;51.594;7.138;2023-02-03T19:39:32;15.20;98.20
34008;DHT22;41085;51.594;7.138;2023-02-03T19:43:32;15.70;98.60
34008;DHT22;41085;51.594;7.138;2023-02-03T19:47:33;15.30;98.10
34008;DHT22;41085;51.594;7.138;2023-02-03T19:51:34;15.60;98.50
34008;DHT22;41085;51.594;7.138;2023-02-03T19:55:35;16.90;98.20
34008;DHT22;41085;51.594;7.138;2023-02-03T19:59:35;16.40;98.60
34008;DHT22;41085;51.594;7.138;2023-02-03T20:03:36;16.90;99.10
34008;DHT22;41085;51.594;7.138;2023-02-03T20:07:37;16.80;99.00
34008;DHT22;41085;51.594;7.138;2023-02-03T20:11:37;16.20;98.60
34008;DHT22;41085;51.594;7.138;2023-02-03T20:15:38;15.20;97.60
34008;DHT22;41085;51.594;7.138;2023-02-03T20:19:38;17.60;99.70
34008;DHT22;41085;51.594;7.138;2023-02-03T20:23:39;15.70;98.60
34008;DHT22;41085;51.594;7.138;2023-02-03T20:27:40;15.20;98.80
34008;DHT22;41085;51.594;7.138;2023-02-03T20:31:40;15.50;98.40
34008;DHT22;41085;51.594;7.138;2023-02-03T20:35:41;16.10;98.30
34008;DHT22;41085;51.594;7.138;2023-02-03T20:39:42;15.60;98.70
34008;DHT22;41085;51.594;7.138;2023-02-03T20:43:42;15.40;98.40
34008;DHT22;41085;51.594;7.138;2023-02-03T20:47:43;15.40;98.30
34008;DHT22;41085;51.594;7.138;2023-02-03T20:51:45;15.60;98.80
34008;DHT22;41085;51.594;7.138;2023-02-03T20:55:46;15.20;97.80
34008;DHT22;41085;51.594;7.138;2023-02-03T20:59:47;16.20;98.50
34008;DHT22;41085;51.594;7.138;2023-02-03T21:03:48;15.40;99.20
34008;DHT22;41085;51.594;7.138;2023-02-03T21:08:13;15.50;96.20
34008;DHT22;41085;51.594;7.138;2023-02-03T21:12:14;15.20;96.30
34008;DHT22;41085;51.594;7.138;2023-02-03T21:16:18;16.00;98.40
34008;DHT22;41085;51.594;7.138;2023-02-03T21:20:26;15.30;98.00
34008;DHT22;41085;51.594;7.138;2023-02-03T21:24:31;15.40;98.30
34008;DHT22;41085;51.594;7.138;2023-02-03T21:28:33;15.40;96.50
34008;DHT22;41085;51.594;7.138;2023-02-03T21:32:38;15.50;97.80
34008;DHT22;41085;51.594;7.138;2023-02-03T21:36:39;16.20;98.50
34008;DHT22;41085;51.594;7.138;2023-02-03T21:40:40;15.30;98.80
34008;DHT22;41085;51.594;7.138;2023-02-03T21:44:41;15.80;97.80
34008;DHT22;41085;51.594;7.138;2023-02-03T21:48:57;15.50;98.30
34008;DHT22;41085;51.594;7.138;2023-02-03T21:57:14;15.50;96.70
34008;DHT22;41085;51.594;7.138;2023-02-03T22:01:15;15.60;98.40
34008;DHT22;41085;51.594;7.138;2023-02-03T22:05:16;15.30;98.20
34008;DHT22;41085;51.594;7.138;2023-02-03T22:09:19;15.70;98.50
34008;DHT22;41085;51.594;7.138;2023-02-03T22:13:20;16.10;98.30
34008;DHT22;41085;51.594;7.138;2023-02-03T22:17:20;15.00;98.40
34008;DHT22;41085;51.594;7.138;2023-02-03T22:21:21;15.20;99.20
34008;DHT22;41085;51.594;7.138;2023-02-03T22:25:22;15.30;98.50
34008;DHT22;41085;51.594;7.138;2023-02-03T22:29:22;16.30;99.30
34008;DHT22;41085;51.594;7.138;2023-02-03T22:33:23;16.50;98.90
34008;DHT22;41085;51.594;7.138;2023-02-03T22:37:24;16.30;98.70
34008;DHT22;41085;51.594;7.138;2023-02-03T22:41:24;16.40;99.20
34008;DHT22;41085;51.594;7.138;2023-02-03T22:45:25;15.60;98.60
34008;DHT22;41085;51.594;7.138;2023-02-03T22:49:26;15.70;99.10
34008;DHT22;41085;51.594;7.138;2023-02-03T22:53:27;16.50;99.00
34008;DHT22;41085;51.594;7.138;2023-02-03T22:57:28;17.40;98.80
34008;DHT22;41085;51.594;7.138;2023-02-03T23:01:28;15.30;97.90
34008;DHT22;41085;51.594;7.138;2023-02-03T23:05:29;17.10;99.40
34008;DHT22;41085;51.594;7.138;2023-02-03T23:09:30;16.90;99.10
34008;DHT22;41085;51.594;7.138;2023-02-03T23:13:31;15.60;97.60
34008;DHT22;41085;51.594;7.138;2023-02-03T23:17:32;17.30;99.10
34008;DHT22;41085;51.594;7.138;2023-02-03T23:21:33;17.70;99.00
34008;DHT22;41085;51.594;7.138;2023-02-03T23:25:34;17.10;99.10
34008;DHT22;41085;51.594;7.138;2023-02-03T23:29:34;16.80;98.50
34008;DHT22;41085;51.594;7.138;2023-02-03T23:33:38;16.60;97.20
34008;DHT22;41085;51.594;7.138;2023-02-03T23:37:39;16.00;98.30
34008;DHT22;41085;51.594;7.138;2023-02-03T23:41:39;18.20;99.10
34008;DHT22;41085;51.594;7.138;2023-02-03T23:45:40;16.50;99.00
34008;DHT22;41085;51.594;7.138;2023-02-03T23:49:41;16.10;99.70
34008;DHT22;41085;51.594;7.138;2023-02-03T23:53:41;16.00;97.50
34008;DHT22;41085;51.594;7.138;2023-02-03T23:57:42;16.30;97.70
